Terminal Aerodrome Forecast
Issued by NWS Milwaukee/Sullivan, WI

Home | Current Version | Previous Version | Text Only | Print | Product List | Glossary On
Versions: 1 2 3 4 5 6 7 8 9 10 11 12 13 14 15 16 17 18 19 20 21 22 23 24 25 26 27 28 29 30 31 32 33 34
000
FTUS43 KMKX 241508 AAB
TAFMKE
TAF AMD
KMKE 241508Z 2415/2518 04018G27KT 2SM -DZ BR OVC004
     FM242200 01013G18KT 4SM -DZ BR OVC003
     FM250400 33013G18KT 4SM -FZRA BR OVC008
     FM250800 32014G24KT 3SM -SN OVC010
     FM251200 31015G25KT P6SM OVC020=

USA.gov is the U.S. government's official web portal to all federal, state and local government web resources and services.